Time;durP1;ratioP1;P1;durP2;ratioP2;P2;SDS_P1;SDS_P2;PMS_P1;PMS_P2;Temp;Humidity;BMP_temperature;BMP_pressure;BME280_temperature;BME280_humidity;BME280_pressure;Samples;Min_cycle;Max_cycle;Signal;HPM_P1;HPM_P2
2022/01/25 00:28:24;;;;;;;70.05;34.60;;;3.80;99.90;;;;;;5026374;28;20047;-74
2022/01/25 00:33:36;;;;;;;65.93;31.77;;;3.80;99.90;;;;;;5042040;28;20073;-73
2022/01/25 00:36:04;;;;;;;65.57;33.50;;;3.80;99.90;;;;;;4990530;28;20489;-73
2022/01/25 00:38:30;;;;;;;69.38;31.10;;;3.80;99.90;;;;;;5006138;28;20395;-73
2022/01/25 00:40:56;;;;;;;67.88;31.88;;;3.80;99.90;;;;;;5012979;28;20044;-73
2022/01/25 00:43:23;;;;;;;66.05;32.58;;;3.80;99.90;;;;;;5025461;28;20041;-73
2022/01/25 00:45:52;;;;;;;62.83;31.75;;;3.80;99.90;;;;;;5026250;28;20107;-74
2022/01/25 00:48:19;;;;;;;64.82;33.38;;;3.80;99.90;;;;;;5023462;28;20422;-73
2022/01/25 00:50:48;;;;;;;67.18;33.80;;;3.80;99.90;;;;;;5025533;28;20041;-73
2022/01/25 00:55:58;;;;;;;67.10;32.47;;;3.80;99.90;;;;;;5047077;28;20053;-73
2022/01/25 00:58:23;;;;;;;66.20;32.38;;;3.90;99.90;;;;;;5012524;28;20051;-73
2022/01/25 01:00:50;;;;;;;68.72;34.03;;;3.80;99.90;;;;;;5029199;28;20033;-73
2022/01/25 01:03:16;;;;;;;65.60;33.42;;;3.80;99.90;;;;;;5028812;28;20041;-73
2022/01/25 01:05:42;;;;;;;72.32;34.00;;;3.80;99.90;;;;;;5037881;28;20083;-73
2022/01/25 01:08:08;;;;;;;66.05;32.92;;;3.80;99.90;;;;;;5028692;28;20061;-73
2022/01/25 01:10:34;;;;;;;65.63;33.30;;;3.80;99.90;;;;;;5023664;28;20120;-73
2022/01/25 01:13:48;;;;;;;68.50;34.53;;;3.80;99.90;;;;;;5028816;28;20132;-73
2022/01/25 01:16:08;;;;;;;69.18;32.85;;;3.80;99.90;;;;;;5028462;28;20072;-73
2022/01/25 01:32:26;;;;;;;66.90;33.63;;;3.80;99.90;;;;;;5045634;28;20158;-73
2022/01/25 01:42:30;;;;;;;72.35;33.65;;;3.80;99.90;;;;;;5028055;28;20345;-73
2022/01/25 01:47:37;;;;;;;70.72;34.13;;;3.80;99.90;;;;;;5046006;28;20158;-73
2022/01/25 01:50:09;;;;;;;65.70;33.50;;;3.80;99.90;;;;;;5027774;28;20050;-72
2022/01/25 01:52:35;;;;;;;71.00;33.28;;;3.80;99.90;;;;;;5028899;28;20056;-73
2022/01/25 01:55:01;;;;;;;69.88;33.17;;;3.80;99.90;;;;;;5027945;28;20700;-73
2022/01/25 01:57:26;;;;;;;72.43;34.75;;;3.80;99.90;;;;;;5029040;28;20037;-73
2022/01/25 01:59:55;;;;;;;69.05;34.63;;;3.80;99.90;;;;;;5012528;28;20067;-73
2022/01/25 02:02:21;;;;;;;64.30;32.55;;;3.80;99.90;;;;;;5026590;28;20063;-73
2022/01/25 02:04:47;;;;;;;71.28;33.35;;;3.80;99.90;;;;;;5008931;28;20045;-73
2022/01/25 02:07:13;;;;;;;66.68;34.42;;;3.80;99.90;;;;;;5026486;28;20036;-72
2022/01/25 02:09:39;;;;;;;71.95;33.72;;;3.80;99.90;;;;;;5026921;28;20041;-73
2022/01/25 02:12:05;;;;;;;72.00;33.88;;;3.80;99.90;;;;;;5038374;28;20053;-73
2022/01/25 02:14:35;;;;;;;69.47;33.78;;;3.80;99.90;;;;;;5034412;28;20410;-73
2022/01/25 02:17:10;;;;;;;69.53;35.35;;;3.70;99.90;;;;;;5036620;28;20124;-72
2022/01/25 02:22:26;;;;;;;71.72;34.88;;;3.70;99.90;;;;;;5040601;28;20374;-72
2022/01/25 02:24:52;;;;;;;65.20;33.42;;;3.80;99.90;;;;;;5035228;28;20053;-72
2022/01/25 02:27:17;;;;;;;67.43;33.28;;;3.70;99.90;;;;;;5032295;28;20517;-73
2022/01/25 02:29:43;;;;;;;72.22;34.28;;;3.70;99.90;;;;;;5034339;28;20092;-72
2022/01/25 02:32:10;;;;;;;69.68;33.33;;;3.70;99.90;;;;;;5016589;28;20045;-73
2022/01/25 02:34:35;;;;;;;69.72;34.28;;;3.80;99.90;;;;;;5027601;28;20080;-73
2022/01/25 02:37:03;;;;;;;67.82;33.67;;;3.70;99.90;;;;;;5026308;28;20045;-73
2022/01/25 02:39:30;;;;;;;69.18;33.70;;;3.70;99.90;;;;;;5030531;28;20414;-73
2022/01/25 02:41:56;;;;;;;68.28;32.97;;;3.70;99.90;;;;;;5018818;28;20040;-73
2022/01/25 02:44:27;;;;;;;69.90;34.85;;;3.70;99.90;;;;;;5034054;28;20052;-73
2022/01/25 02:49:19;;;;;;;73.60;33.85;;;3.70;99.90;;;;;;5051159;28;20053;-73
2022/01/25 02:51:48;;;;;;;66.22;31.42;;;3.70;99.90;;;;;;5016719;28;20064;-73
2022/01/25 02:54:16;;;;;;;67.75;33.78;;;3.70;99.90;;;;;;5039681;28;20053;-72
2022/01/25 02:56:44;;;;;;;71.70;34.53;;;3.80;99.90;;;;;;5030246;28;20037;-73
2022/01/25 02:59:11;;;;;;;66.88;33.53;;;3.70;99.90;;;;;;5037159;28;20055;-72
2022/01/25 03:01:37;;;;;;;65.28;33.00;;;3.70;99.90;;;;;;5038596;28;20124;-73
2022/01/25 03:04:04;;;;;;;67.88;33.70;;;3.70;99.90;;;;;;5035222;28;20044;-73
2022/01/25 03:06:30;;;;;;;69.32;34.60;;;3.70;99.90;;;;;;5027857;28;20045;-73
2022/01/25 03:08:55;;;;;;;72.15;32.60;;;3.70;99.90;;;;;;5035191;28;20080;-73
2022/01/25 03:11:23;;;;;;;74.88;34.42;;;3.70;99.90;;;;;;5035377;28;20060;-73
2022/01/25 03:13:52;;;;;;;69.85;34.95;;;3.70;99.90;;;;;;5036878;28;20180;-73
2022/01/25 03:16:31;;;;;;;70.72;33.65;;;3.70;99.90;;;;;;5039496;28;20494;-73
2022/01/25 03:19:00;;;;;;;70.18;35.53;;;3.70;99.90;;;;;;5019236;28;20084;-73
2022/01/25 03:23:53;;;;;;;69.00;33.03;;;3.70;99.90;;;;;;5026690;28;20041;-73
2022/01/25 03:26:19;;;;;;;71.78;34.50;;;3.70;99.90;;;;;;5026442;28;20447;-73
2022/01/25 03:28:46;;;;;;;72.10;33.72;;;3.70;99.90;;;;;;5026669;28;20049;-72
2022/01/25 03:31:13;;;;;;;68.85;33.60;;;3.70;99.90;;;;;;5026407;28;20148;-72
2022/01/25 03:33:38;;;;;;;69.32;33.25;;;3.70;99.90;;;;;;5025895;28;20568;-73
2022/01/25 03:36:07;;;;;;;70.25;33.97;;;3.70;99.90;;;;;;5010016;28;20045;-72
2022/01/25 03:38:37;;;;;;;68.90;33.08;;;3.70;99.90;;;;;;5043172;28;20072;-73
2022/01/25 03:41:08;;;;;;;70.43;33.42;;;3.90;99.90;;;;;;5026295;28;20048;-73
2022/01/25 03:43:35;;;;;;;68.70;31.75;;;3.70;99.90;;;;;;5027823;28;20037;-73
2022/01/25 03:46:41;;;;;;;69.50;33.97;;;3.70;99.90;;;;;;5027254;28;20055;-73
2022/01/25 03:51:38;;;;;;;68.40;33.22;;;3.70;99.90;;;;;;5038228;28;20073;-73
2022/01/25 03:54:04;;;;;;;69.60;33.83;;;3.70;99.90;;;;;;5026690;28;20103;-73
2022/01/25 03:56:29;;;;;;;73.45;34.50;;;3.70;99.90;;;;;;5026951;28;20132;-73
2022/01/25 03:58:55;;;;;;;69.75;32.65;;;3.70;99.90;;;;;;5017151;28;20120;-73
2022/01/25 04:01:21;;;;;;;70.15;33.63;;;3.70;99.90;;;;;;5018441;28;20069;-73
2022/01/25 04:03:57;;;;;;;72.20;33.90;;;3.70;99.90;;;;;;5025698;28;20498;-73
2022/01/25 04:06:24;;;;;;;72.47;34.35;;;3.70;99.90;;;;;;5008973;28;20079;-73
2022/01/25 04:08:49;;;;;;;69.03;34.90;;;3.70;99.90;;;;;;5024003;28;20042;-73
2022/01/25 04:11:15;;;;;;;66.60;32.30;;;3.70;99.90;;;;;;5026356;28;20068;-73
2022/01/25 04:13:41;;;;;;;74.28;36.00;;;3.70;99.90;;;;;;5026035;28;20048;-73
2022/01/25 04:16:19;;;;;;;72.90;34.08;;;3.70;99.90;;;;;;5026007;28;20128;-73
2022/01/25 04:18:57;;;;;;;68.22;33.53;;;3.70;99.90;;;;;;5024861;28;20471;-73
2022/01/25 04:24:42;;;;;;;70.97;34.35;;;3.70;99.90;;;;;;5021165;28;20507;-73
2022/01/25 04:26:56;;;;;;;66.50;32.72;;;3.70;99.90;;;;;;5020631;28;20116;-73
2022/01/25 04:29:22;;;;;;;71.78;34.15;;;3.70;99.90;;;;;;5023022;28;20095;-73
2022/01/25 04:31:48;;;;;;;68.03;34.05;;;3.70;99.90;;;;;;5028848;28;20397;-73
2022/01/25 04:53:04;;;;;;;79.97;37.15;;;3.70;99.90;;;;;;5027286;28;20131;-73
2022/01/25 04:55:38;;;;;;;74.28;34.97;;;3.70;99.90;;;;;;5011831;28;20041;-73
2022/01/25 04:58:11;;;;;;;72.40;34.95;;;3.70;99.90;;;;;;5022743;28;20418;-72
2022/01/25 05:00:38;;;;;;;74.28;34.97;;;3.70;99.90;;;;;;5004238;28;20057;-73
2022/01/25 05:03:13;;;;;;;70.07;34.40;;;3.70;99.90;;;;;;5020906;28;20459;-73
2022/01/25 05:05:53;;;;;;;73.13;35.83;;;3.70;99.90;;;;;;5029192;28;20049;-73
2022/01/25 05:08:31;;;;;;;69.95;33.13;;;3.70;99.90;;;;;;5025338;28;20089;-73
2022/01/25 05:11:03;;;;;;;70.38;33.38;;;3.70;99.90;;;;;;5013662;28;20509;-73
2022/01/25 05:16:26;;;;;;;68.22;34.08;;;3.70;99.90;;;;;;5040528;28;20045;-73
2022/01/25 05:19:01;;;;;;;71.18;34.67;;;3.70;99.90;;;;;;5029529;28;20585;-73
2022/01/25 05:24:11;;;;;;;70.28;35.38;;;3.70;99.90;;;;;;5039451;28;20057;-73
2022/01/25 05:26:37;;;;;;;70.07;34.03;;;3.70;99.90;;;;;;5024154;28;20544;-73
2022/01/25 05:29:03;;;;;;;77.35;35.15;;;3.70;99.90;;;;;;5011985;28;20041;-73
2022/01/25 05:31:29;;;;;;;72.10;33.53;;;3.70;99.90;;;;;;5018850;28;20589;-73
2022/01/25 05:33:55;;;;;;;77.90;35.72;;;3.70;99.90;;;;;;5029755;28;20060;-73
2022/01/25 05:36:20;;;;;;;71.70;34.80;;;3.70;99.90;;;;;;5019948;28;20050;-73
2022/01/25 05:38:47;;;;;;;74.18;35.45;;;3.70;99.90;;;;;;5017239;28;20117;-73
2022/01/25 05:41:14;;;;;;;71.82;34.88;;;3.70;99.90;;;;;;5027874;28;20049;-73
2022/01/25 05:46:34;;;;;;;72.75;33.50;;;3.70;99.90;;;;;;5029352;28;20053;-72
2022/01/25 05:49:00;;;;;;;75.60;35.03;;;3.70;99.90;;;;;;5012601;28;20509;-72
2022/01/25 05:51:26;;;;;;;68.13;33.50;;;3.70;99.90;;;;;;5012309;28;20053;-73
2022/01/25 05:53:51;;;;;;;76.30;35.33;;;3.70;99.90;;;;;;5029655;28;20139;-73
2022/01/25 05:56:17;;;;;;;71.53;34.85;;;3.70;99.90;;;;;;5018925;28;20459;-73
2022/01/25 05:58:43;;;;;;;72.03;35.03;;;3.70;99.90;;;;;;5020290;28;20037;-73
2022/01/25 06:01:08;;;;;;;72.72;33.85;;;3.70;99.90;;;;;;5020873;28;20059;-72
2022/01/25 06:03:34;;;;;;;74.20;34.95;;;3.70;99.90;;;;;;5018090;28;20174;-73
2022/01/25 06:06:00;;;;;;;72.88;35.30;;;3.70;99.90;;;;;;5034518;28;20127;-75
2022/01/25 06:08:25;;;;;;;71.10;33.95;;;3.70;99.90;;;;;;5020189;28;20805;-73
2022/01/25 06:10:51;;;;;;;74.93;36.50;;;3.70;99.90;;;;;;5021607;28;20107;-73
2022/01/25 06:13:17;;;;;;;70.78;35.55;;;3.70;99.90;;;;;;5024382;28;20052;-73
2022/01/25 06:15:42;;;;;;;69.63;33.53;;;3.70;99.90;;;;;;5024371;28;20042;-73
2022/01/25 06:18:08;;;;;;;74.47;35.70;;;3.70;99.90;;;;;;5007798;28;20056;-73
2022/01/25 06:20:34;;;;;;;72.75;34.90;;;3.70;99.90;;;;;;5023193;28;20049;-73
2022/01/25 06:23:00;;;;;;;77.75;35.92;;;3.70;99.90;;;;;;5022851;28;20069;-73
2022/01/25 06:25:26;;;;;;;75.72;34.58;;;3.70;99.90;;;;;;5013091;28;20618;-72
2022/01/25 06:28:00;;;;;;;71.97;35.67;;;3.70;99.90;;;;;;5008363;28;20052;-72
2022/01/25 06:30:26;;;;;;;70.57;36.05;;;3.70;99.90;;;;;;5036549;28;20095;-73
2022/01/25 06:32:52;;;;;;;73.68;35.58;;;3.70;99.90;;;;;;5019335;28;20045;-73
2022/01/25 06:35:18;;;;;;;74.53;36.38;;;3.70;99.90;;;;;;4999619;28;20056;-73
2022/01/25 06:37:44;;;;;;;74.10;35.63;;;3.70;99.90;;;;;;5033999;28;21426;-72
2022/01/25 06:40:11;;;;;;;70.95;35.15;;;3.70;99.90;;;;;;5003435;28;20068;-73
2022/01/25 06:42:37;;;;;;;70.88;33.78;;;3.70;99.90;;;;;;5014101;28;20080;-73
2022/01/25 06:45:09;;;;;;;69.97;33.65;;;3.70;99.90;;;;;;5024421;28;20124;-72
2022/01/25 06:47:34;;;;;;;75.05;34.58;;;3.70;99.90;;;;;;4988949;28;20060;-73
2022/01/25 06:50:00;;;;;;;79.75;35.67;;;3.70;99.90;;;;;;5009309;28;20075;-72
2022/01/25 06:52:26;;;;;;;70.78;34.88;;;3.70;99.90;;;;;;4991200;28;20686;-72
2022/01/25 06:54:52;;;;;;;70.18;34.03;;;3.70;99.90;;;;;;4989997;28;20041;-73
2022/01/25 06:57:18;;;;;;;68.15;33.03;;;3.70;99.90;;;;;;5014012;28;20080;-73
2022/01/25 06:59:43;;;;;;;77.78;36.70;;;3.70;99.90;;;;;;5000171;28;20120;-73
2022/01/25 07:02:10;;;;;;;70.85;33.55;;;3.70;99.90;;;;;;4998237;28;20045;-73
2022/01/25 07:04:35;;;;;;;68.00;34.03;;;3.70;99.90;;;;;;5006218;28;20064;-72
2022/01/25 07:07:01;;;;;;;78.78;35.60;;;3.70;99.90;;;;;;5019351;28;20088;-72
2022/01/25 07:09:28;;;;;;;78.95;36.58;;;3.80;99.90;;;;;;5021771;28;20057;-73
2022/01/25 07:11:54;;;;;;;69.38;35.00;;;3.70;99.90;;;;;;5016715;28;20041;-73
2022/01/25 07:14:19;;;;;;;72.75;35.25;;;3.70;99.90;;;;;;5005462;28;20092;-73
2022/01/25 07:16:46;;;;;;;72.93;35.83;;;3.60;99.90;;;;;;5038807;28;20494;-73
2022/01/25 07:19:13;;;;;;;73.97;36.50;;;3.70;99.90;;;;;;5005184;28;21050;-73
2022/01/25 07:21:38;;;;;;;75.75;35.20;;;3.70;99.90;;;;;;5040653;28;20041;-72
2022/01/25 07:24:05;;;;;;;75.35;35.83;;;3.60;99.90;;;;;;5022602;28;20064;-73
2022/01/25 07:26:30;;;;;;;78.68;37.35;;;3.60;99.90;;;;;;5036945;28;20554;-73
2022/01/25 07:28:56;;;;;;;75.20;36.92;;;3.60;99.90;;;;;;5021153;28;20041;-73
2022/01/25 07:31:22;;;;;;;76.15;36.10;;;3.70;99.90;;;;;;5022835;28;20044;-73
2022/01/25 07:33:47;;;;;;;81.90;37.25;;;3.60;99.90;;;;;;5037273;28;20052;-72
2022/01/25 07:36:13;;;;;;;72.53;34.88;;;3.60;99.90;;;;;;5020437;28;20172;-73
2022/01/25 07:38:39;;;;;;;76.38;35.45;;;3.70;99.90;;;;;;5017614;28;20045;-73
2022/01/25 07:41:04;;;;;;;72.97;34.65;;;3.60;99.90;;;;;;5015513;28;20068;-73
2022/01/25 07:43:30;;;;;;;79.22;37.03;;;3.60;99.90;;;;;;5016579;28;20041;-72
2022/01/25 07:45:58;;;;;;;73.85;37.58;;;3.70;99.90;;;;;;5001092;28;20055;-72
2022/01/25 07:48:24;;;;;;;73.30;36.78;;;3.60;99.90;;;;;;5024162;28;20537;-72
2022/01/25 07:50:50;;;;;;;73.95;34.80;;;3.70;99.90;;;;;;5004143;28;20562;-73
2022/01/25 07:53:16;;;;;;;78.03;37.67;;;3.60;99.90;;;;;;5014693;28;20037;-73
2022/01/25 07:55:41;;;;;;;82.03;36.95;;;3.70;99.90;;;;;;5000620;28;20033;-71
2022/01/25 07:58:07;;;;;;;77.28;36.13;;;3.60;99.90;;;;;;5015715;28;20050;-73
2022/01/25 08:00:33;;;;;;;68.57;34.03;;;3.70;99.90;;;;;;5016618;28;20128;-73
2022/01/25 08:02:59;;;;;;;79.10;35.83;;;3.60;99.90;;;;;;5020097;28;20034;-73
2022/01/25 08:05:26;;;;;;;78.10;36.30;;;3.60;99.90;;;;;;5036982;28;20045;-73
2022/01/25 08:07:53;;;;;;;81.25;37.17;;;3.60;99.90;;;;;;5005543;28;20489;-73
2022/01/25 08:10:19;;;;;;;76.63;35.42;;;3.60;99.90;;;;;;5008963;28;20049;-73
2022/01/25 08:12:45;;;;;;;76.95;35.65;;;3.60;99.90;;;;;;5022848;28;20041;-73
2022/01/25 08:15:12;;;;;;;75.57;36.05;;;3.60;99.90;;;;;;5021932;28;20053;-73
2022/01/25 08:17:37;;;;;;;78.82;37.38;;;3.70;99.90;;;;;;5039028;28;20049;-73
2022/01/25 08:20:04;;;;;;;77.80;35.83;;;3.70;99.90;;;;;;5007442;28;20068;-72
2022/01/25 08:22:30;;;;;;;82.55;36.58;;;3.70;99.90;;;;;;5021712;28;20049;-73
2022/01/25 08:24:56;;;;;;;78.35;36.97;;;3.70;99.90;;;;;;5038469;28;20048;-73
2022/01/25 08:27:23;;;;;;;85.13;38.38;;;3.70;99.90;;;;;;5023123;28;20049;-73
2022/01/25 08:29:53;;;;;;;76.25;35.30;;;3.70;99.90;;;;;;5038894;28;20126;-73
2022/01/25 08:32:19;;;;;;;77.43;36.50;;;3.70;99.90;;;;;;5022320;28;20041;-73
2022/01/25 08:34:45;;;;;;;76.78;36.58;;;3.70;99.90;;;;;;5038980;28;20045;-73
2022/01/25 08:37:11;;;;;;;80.90;37.47;;;3.70;99.90;;;;;;5019580;28;20065;-73
2022/01/25 08:39:37;;;;;;;77.85;37.47;;;3.70;99.90;;;;;;5037017;28;20279;-73
2022/01/25 08:42:03;;;;;;;77.32;36.92;;;3.70;99.90;;;;;;5004922;28;20091;-73
2022/01/25 08:44:29;;;;;;;87.15;36.97;;;3.70;99.90;;;;;;5007508;28;20304;-73
2022/01/25 08:46:55;;;;;;;74.45;35.72;;;3.70;99.90;;;;;;5022493;28;20048;-73
2022/01/25 08:49:21;;;;;;;79.68;37.78;;;3.80;99.90;;;;;;5021639;28;20065;-73
2022/01/25 08:51:48;;;;;;;75.78;35.42;;;3.70;99.90;;;;;;5021018;28;20103;-73
2022/01/25 08:54:17;;;;;;;73.18;35.40;;;4.70;99.90;;;;;;5019555;28;20473;-73
2022/01/25 08:56:43;;;;;;;70.35;34.08;;;3.80;99.90;;;;;;5022152;28;20038;-73
2022/01/25 08:59:10;;;;;;;74.43;36.67;;;3.80;99.90;;;;;;5026129;28;20221;-73
2022/01/25 09:01:36;;;;;;;87.05;38.28;;;3.80;99.90;;;;;;5022668;28;20658;-73
2022/01/25 09:04:02;;;;;;;82.75;38.50;;;3.80;99.90;;;;;;5021521;28;20038;-73
2022/01/25 09:06:28;;;;;;;75.13;35.40;;;3.80;99.90;;;;;;5022134;28;20048;-73
2022/01/25 09:09:05;;;;;;;77.30;36.78;;;3.80;99.90;;;;;;5006156;28;20045;-73
2022/01/25 09:11:31;;;;;;;80.65;37.47;;;3.80;99.90;;;;;;5021206;28;20202;-73
2022/01/25 09:13:57;;;;;;;82.13;37.00;;;3.80;99.90;;;;;;5005140;28;20128;-73
2022/01/25 09:16:23;;;;;;;77.18;37.15;;;3.80;99.90;;;;;;5025189;28;20138;-73
2022/01/25 09:18:49;;;;;;;76.13;36.80;;;3.90;99.90;;;;;;5024641;28;20119;-72
2022/01/25 09:21:14;;;;;;;73.65;35.53;;;3.80;99.90;;;;;;5040699;28;20444;-74
2022/01/25 09:23:40;;;;;;;80.03;36.13;;;3.80;99.90;;;;;;5025743;28;20035;-73
2022/01/25 09:26:06;;;;;;;73.07;35.22;;;3.90;99.90;;;;;;5040477;28;20126;-73
2022/01/25 09:28:32;;;;;;;78.88;36.22;;;3.80;99.90;;;;;;5006685;28;20098;-73
2022/01/25 09:30:58;;;;;;;82.07;36.90;;;3.80;99.90;;;;;;5027743;28;20537;-73
2022/01/25 09:33:25;;;;;;;73.50;36.60;;;3.90;99.90;;;;;;5041703;28;20045;-73
2022/01/25 09:35:52;;;;;;;77.63;35.78;;;3.90;99.90;;;;;;5024656;28;20042;-73
2022/01/25 09:38:18;;;;;;;78.13;37.22;;;3.90;99.90;;;;;;5025320;28;20042;-74
2022/01/25 09:40:44;;;;;;;78.25;35.63;;;3.90;99.90;;;;;;5008468;28;20490;-73
2022/01/25 09:43:10;;;;;;;80.10;36.17;;;3.90;99.90;;;;;;5026654;28;20045;-73
2022/01/25 09:45:36;;;;;;;77.85;37.17;;;3.90;99.90;;;;;;5024386;28;20042;-73
2022/01/25 09:48:04;;;;;;;78.88;35.88;;;3.90;99.90;;;;;;5026550;28;20044;-73
2022/01/25 09:50:30;;;;;;;80.28;37.10;;;3.90;99.90;;;;;;5040189;28;20605;-73
2022/01/25 09:52:58;;;;;;;80.20;38.08;;;3.90;99.90;;;;;;5008458;28;20609;-73
2022/01/25 09:55:28;;;;;;;83.90;36.25;;;3.90;99.90;;;;;;5025177;28;20057;-73
2022/01/25 09:57:53;;;;;;;80.53;36.30;;;3.90;99.90;;;;;;5025316;28;20570;-73
2022/01/25 10:00:24;;;;;;;72.88;34.45;;;3.90;99.90;;;;;;5040081;28;20136;-73
2022/01/25 10:03:08;;;;;;;72.32;35.42;;;3.90;99.90;;;;;;5042112;28;20067;-73
2022/01/25 10:05:42;;;;;;;83.15;37.67;;;3.90;99.90;;;;;;5025697;28;20053;-73
2022/01/25 10:08:24;;;;;;;78.25;36.42;;;3.90;99.90;;;;;;5041019;28;20048;-73
2022/01/25 10:10:54;;;;;;;81.68;37.03;;;3.90;99.90;;;;;;5024202;28;20049;-73
2022/01/25 10:13:33;;;;;;;84.45;38.42;;;4.00;99.90;;;;;;5039670;28;20255;-73
2022/01/25 10:16:10;;;;;;;76.82;36.13;;;3.90;99.90;;;;;;5024843;28;20072;-73
2022/01/25 10:18:54;;;;;;;82.70;38.00;;;3.90;99.90;;;;;;5024201;28;20045;-74
2022/01/25 10:21:29;;;;;;;74.35;35.42;;;4.00;99.90;;;;;;5023086;28;20049;-73
2022/01/25 10:24:18;;;;;;;82.22;36.13;;;3.90;99.90;;;;;;5040091;28;20053;-74
2022/01/25 10:26:53;;;;;;;76.45;36.38;;;4.00;99.90;;;;;;5006218;28;20041;-73
2022/01/25 10:29:25;;;;;;;80.35;36.42;;;4.00;99.90;;;;;;5024405;28;20046;-73
2022/01/25 10:31:58;;;;;;;72.28;35.50;;;4.00;99.90;;;;;;5022644;28;20048;-74
2022/01/25 10:34:32;;;;;;;82.43;37.15;;;4.00;99.90;;;;;;5040487;28;20048;-72
2022/01/25 10:37:00;;;;;;;78.55;36.92;;;4.00;99.90;;;;;;5023891;28;20053;-73
2022/01/25 10:39:31;;;;;;;75.78;35.85;;;4.00;99.90;;;;;;5023677;28;20057;-74
2022/01/25 10:42:09;;;;;;;78.15;36.95;;;4.00;99.90;;;;;;5039528;28;20056;-73
2022/01/25 10:44:55;;;;;;;84.00;38.95;;;4.00;99.90;;;;;;5039939;28;20107;-73
2022/01/25 10:47:42;;;;;;;80.20;38.17;;;4.00;99.90;;;;;;5023355;28;20119;-73
2022/01/25 10:50:16;;;;;;;84.50;38.20;;;4.00;99.90;;;;;;5023539;28;20053;-73
2022/01/25 10:52:42;;;;;;;77.47;36.53;;;4.10;99.90;;;;;;5041449;28;20049;-73
2022/01/25 10:55:09;;;;;;;82.63;37.55;;;4.10;99.90;;;;;;5022544;28;20125;-73
2022/01/25 10:57:34;;;;;;;84.40;39.05;;;4.10;99.90;;;;;;5040475;28;20521;-73
2022/01/25 11:00:08;;;;;;;77.50;37.42;;;4.10;99.90;;;;;;5008973;28;20060;-73
2022/01/25 11:02:34;;;;;;;85.03;37.05;;;4.10;99.90;;;;;;5023915;28;20514;-73
2022/01/25 11:05:08;;;;;;;85.50;38.50;;;4.10;99.90;;;;;;5039168;28;20133;-73
2022/01/25 11:07:46;;;;;;;79.97;36.20;;;4.10;99.90;;;;;;5033265;28;20171;-73
2022/01/25 11:10:20;;;;;;;81.53;37.28;;;4.10;99.90;;;;;;5020494;28;20049;-74
2022/01/25 11:13:01;;;;;;;82.47;37.17;;;4.10;99.90;;;;;;5019701;28;20053;-73
2022/01/25 11:15:26;;;;;;;84.55;38.42;;;4.20;99.90;;;;;;5022918;28;20045;-73
2022/01/25 11:17:52;;;;;;;78.72;36.20;;;4.10;99.90;;;;;;5006572;28;20048;-73
2022/01/25 11:20:18;;;;;;;78.47;37.03;;;4.20;99.90;;;;;;5038115;28;20127;-73
2022/01/25 11:22:45;;;;;;;83.97;38.05;;;4.20;99.90;;;;;;5038555;28;20056;-74
2022/01/25 11:25:14;;;;;;;84.35;38.50;;;4.20;99.90;;;;;;5038193;28;20042;-73
2022/01/25 11:27:42;;;;;;;82.93;38.05;;;4.20;99.90;;;;;;5021318;28;20683;-73
2022/01/25 11:30:15;;;;;;;85.90;38.13;;;4.20;99.90;;;;;;5015454;28;20057;-73
2022/01/25 11:32:44;;;;;;;86.55;37.55;;;4.20;99.90;;;;;;5014929;28;20132;-73
2022/01/25 11:35:13;;;;;;;84.20;37.60;;;4.20;99.90;;;;;;5010172;28;20512;-74
2022/01/25 11:37:44;;;;;;;82.20;37.78;;;4.20;99.90;;;;;;5034910;28;20375;-73
2022/01/25 11:40:20;;;;;;;81.55;37.20;;;4.20;99.90;;;;;;5021192;28;20048;-73
2022/01/25 11:42:52;;;;;;;86.78;37.95;;;4.20;99.90;;;;;;5032483;28;20061;-73
2022/01/25 11:45:29;;;;;;;81.68;36.75;;;4.20;99.90;;;;;;5031579;28;20548;-73
2022/01/25 11:47:56;;;;;;;84.85;37.28;;;4.20;99.90;;;;;;4991513;28;20060;-74
2022/01/25 11:50:48;;;;;;;84.32;37.28;;;4.30;99.90;;;;;;5008771;28;20048;-73
2022/01/25 11:53:16;;;;;;;84.00;37.35;;;4.20;99.90;;;;;;5029650;28;20194;-74
2022/01/25 11:55:48;;;;;;;81.15;37.83;;;4.20;99.90;;;;;;5033567;28;20049;-73
2022/01/25 11:58:31;;;;;;;77.65;36.35;;;4.20;99.90;;;;;;5017337;28;20057;-73
2022/01/25 12:01:07;;;;;;;83.38;38.28;;;4.20;99.90;;;;;;4996659;28;20095;-73
2022/01/25 12:03:40;;;;;;;85.15;36.30;;;4.20;99.90;;;;;;5012414;28;20108;-73
2022/01/25 12:06:12;;;;;;;86.70;38.13;;;4.30;99.90;;;;;;5014639;28;21022;-74
2022/01/25 12:12:22;;;;;;;79.07;35.60;;;4.30;99.90;;;;;;5006480;28;20491;-73
2022/01/25 12:14:49;;;;;;;82.93;37.15;;;4.30;99.90;;;;;;5012607;28;20053;-73
2022/01/25 12:17:24;;;;;;;80.45;37.92;;;4.30;99.90;;;;;;4994144;28;20053;-73
2022/01/25 12:19:51;;;;;;;80.07;36.38;;;4.30;99.90;;;;;;5031742;28;20049;-73
2022/01/25 12:22:20;;;;;;;85.82;36.65;;;4.30;99.90;;;;;;4997663;28;20042;-74
2022/01/25 12:24:57;;;;;;;84.15;38.67;;;4.40;99.90;;;;;;5021340;28;20050;-74
2022/01/25 12:27:56;;;;;;;75.18;34.85;;;4.40;99.90;;;;;;5010686;28;20086;-73
2022/01/25 12:30:25;;;;;;;77.03;35.50;;;4.40;99.90;;;;;;5012010;28;20143;-74
2022/01/25 12:33:03;;;;;;;81.28;37.00;;;4.40;99.90;;;;;;5008999;28;20227;-74
2022/01/25 12:35:49;;;;;;;84.05;37.53;;;4.30;99.90;;;;;;5010833;28;20037;-73
2022/01/25 12:38:51;;;;;;;75.43;35.22;;;5.10;99.90;;;;;;5004144;28;20817;-74
2022/01/25 12:41:17;;;;;;;81.13;35.95;;;4.30;99.90;;;;;;5010209;28;20579;-74
2022/01/25 12:43:53;;;;;;;82.18;38.50;;;4.40;99.90;;;;;;5012375;28;20510;-73
2022/01/25 12:46:24;;;;;;;85.22;36.30;;;4.30;99.90;;;;;;4999041;28;20045;-73
2022/01/25 12:48:59;;;;;;;79.60;37.45;;;4.40;99.90;;;;;;4998577;28;20124;-73
2022/01/25 12:51:34;;;;;;;80.60;38.28;;;4.30;99.90;;;;;;5018854;28;20045;-73
2022/01/25 12:54:03;;;;;;;81.18;37.15;;;4.30;99.90;;;;;;5007183;28;20084;-73
2022/01/25 12:56:51;;;;;;;81.90;36.58;;;4.30;99.90;;;;;;5008281;28;20084;-73
2022/01/25 12:59:23;;;;;;;77.00;35.80;;;4.30;99.90;;;;;;5002938;28;20065;-73
2022/01/25 13:01:51;;;;;;;77.65;37.00;;;4.30;99.90;;;;;;5035170;28;20048;-73
2022/01/25 13:04:16;;;;;;;75.78;36.83;;;4.30;99.90;;;;;;5031800;28;20089;-74
2022/01/25 13:06:46;;;;;;;80.80;36.95;;;4.30;99.90;;;;;;5017784;28;20192;-74
2022/01/25 13:09:38;;;;;;;83.63;38.38;;;4.30;99.90;;;;;;5016767;28;20040;-73
2022/01/25 13:14:46;;;;;;;76.25;36.03;;;4.30;99.90;;;;;;5035876;28;20062;-73
2022/01/25 13:17:15;;;;;;;;;;;4.20;99.90;;;;;;5018832;28;20077;-73
2022/01/25 13:19:58;;;;;;;82.45;33.90;;;4.30;99.90;;;;;;5028941;28;19932;-73
2022/01/25 13:22:28;;;;;;;82.85;36.35;;;4.30;99.90;;;;;;5019846;28;20057;-74
2022/01/25 13:25:26;;;;;;;85.07;36.90;;;4.30;99.90;;;;;;5036874;28;20077;-73
2022/01/25 13:27:55;;;;;;;80.15;37.10;;;4.30;99.90;;;;;;5037977;28;20605;-74
2022/01/25 13:30:45;;;;;;;78.82;36.05;;;4.30;99.90;;;;;;5037410;28;20063;-74
2022/01/25 13:33:20;;;;;;;80.53;34.45;;;4.30;99.90;;;;;;5021003;28;20046;-74
2022/01/25 13:35:53;;;;;;;81.65;35.20;;;4.30;99.90;;;;;;5009211;28;21399;-74
2022/01/25 13:38:20;;;;;;;80.95;34.50;;;4.30;99.90;;;;;;5004889;28;20561;-73
2022/01/25 13:46:17;;;;;;;81.05;35.20;;;4.20;99.90;;;;;;4974361;28;20456;-74
2022/01/25 13:48:44;;;;;;;78.78;35.65;;;4.30;99.90;;;;;;5019271;28;20819;-74
2022/01/25 13:51:14;;;;;;;85.45;36.60;;;4.30;99.90;;;;;;5002064;28;21247;-73
2022/01/25 13:53:41;;;;;;;86.15;37.65;;;4.20;99.90;;;;;;5022114;28;20272;-74
2022/01/25 13:56:13;;;;;;;82.00;37.75;;;4.20;99.90;;;;;;5036937;28;20045;-73
2022/01/25 13:58:41;;;;;;;84.65;36.38;;;4.20;99.90;;;;;;4998078;28;20589;-74
2022/01/25 14:01:10;;;;;;;80.05;35.63;;;4.20;99.90;;;;;;5003413;28;20046;-74
2022/01/25 14:03:39;;;;;;;78.30;36.25;;;4.20;99.90;;;;;;4995302;28;20132;-73
2022/01/25 14:06:35;;;;;;;83.40;36.58;;;4.20;99.90;;;;;;5012553;28;20152;-73
2022/01/25 14:09:21;;;;;;;83.20;36.50;;;4.20;99.90;;;;;;5005457;28;20074;-74
2022/01/25 14:22:48;;;;;;;86.28;37.17;;;4.20;99.90;;;;;;5026137;28;20084;-74
2022/01/25 14:25:28;;;;;;;83.70;37.53;;;4.20;99.90;;;;;;5034917;28;20201;-74
2022/01/25 14:27:56;;;;;;;84.07;37.00;;;4.20;99.90;;;;;;5019252;28;20041;-74
2022/01/25 14:30:22;;;;;;;86.57;36.35;;;4.20;99.90;;;;;;4994584;28;20127;-74
2022/01/25 14:33:13;;;;;;;87.00;36.47;;;4.20;99.90;;;;;;4990049;28;20103;-74
2022/01/25 14:35:54;;;;;;;84.90;37.50;;;4.20;99.90;;;;;;5001148;28;20445;-74
2022/01/25 14:38:22;;;;;;;88.50;37.73;;;4.20;99.90;;;;;;4993055;28;20037;-73
2022/01/25 14:40:58;;;;;;;87.25;37.45;;;4.20;99.90;;;;;;5018561;28;20049;-74
2022/01/25 14:43:53;;;;;;;79.18;35.65;;;4.20;99.90;;;;;;4989831;28;20512;-73
2022/01/25 14:46:28;;;;;;;84.18;36.67;;;4.20;99.90;;;;;;5018562;28;20095;-74
2022/01/25 14:49:02;;;;;;;82.63;35.47;;;4.20;99.90;;;;;;4986285;28;20045;-74
2022/01/25 14:51:40;;;;;;;86.10;36.30;;;4.20;99.90;;;;;;5020655;28;20431;-74